Flight Track Log - Related Links

Times and Time Zones

All times are in EDT time to prevent confusion due to time zone crossing. See the N779JM flight status page for this flight to view local times or setup timezone preferences in your user account.

Time Position Orientation Groundspeed Altitude Reporting Facility
EDT Latitude Longitude Course Direction KTS MPH feet Rate Location/Type
Wed 03:13:32 PM 42.4886 -75.1628 289° West 255 293 5,000  Level Boston Center
Wed 03:14:32 PM 42.4792 -75.2047 253° West 187 215 6,500 1,550 Climbing Boston Center
Wed 03:15:00 PM 42.5721 -75.4883 289° West  Level FlightAware Approximate
Wed 03:15:32 PM 42.4697 -75.2550 256° West 166 191 8,100  Level Boston Center
Wed 03:16:32 PM 42.4789 -75.3061 284° West 151 174 9,700 1,550 Climbing Boston Center
Wed 03:17:32 PM 42.4881 -75.3572 284° West 139 160 11,200 1,350 Climbing Boston Center
Wed 03:18:32 PM 42.4950 -75.4111 280° West 144 166 12,400 1,300 Climbing Boston Center
Wed 03:19:32 PM 42.5039 -75.4650 283° West 144 166 13,800 1,400 Climbing Boston Center
Wed 03:20:32 PM 42.5089 -75.5158 278° West 144 166 15,200 1,250 Climbing Boston Center
Wed 03:21:32 PM 42.5178 -75.5697 283° West 144 166 16,300 1,100 Climbing Boston Center
Wed 03:22:32 PM 42.5225 -75.6236 277° West 144 166 17,400 950 Climbing Boston Center
Wed 03:23:32 PM 42.5314 -75.6775 283° West 144 166 18,200 950 Climbing Boston Center
Wed 03:24:32 PM 42.5467 -75.7292 292° West 144 166 19,300 1,000 Climbing Boston Center
Wed 03:25:32 PM 42.5639 -75.7808 294° West 149 171 20,200 1,000 Climbing Boston Center
Wed 03:26:32 PM 42.5856 -75.8272 302° West 154 177 21,300 900 Climbing Boston Center
Wed 03:27:32 PM 42.6047 -75.8761 298° West 148 170 22,000 700 Climbing Boston Center
Wed 03:28:32 PM 42.6283 -75.9256 303° West 153 176 22,700 750 Climbing Boston Center
Wed 03:29:32 PM 42.6497 -75.9775 299° West 158 182 23,500 750 Climbing Boston Center
Wed 03:30:32 PM 42.6750 -76.0325 302° West 163 188 24,200 700 Climbing Boston Center
Wed 03:31:32 PM 42.6942 -76.0847 297° West 163 188 24,900 565 Climbing Boston Center
Wed 03:33:43 PM 42.7019 -76.1978 275° West 144 166 26,000 346 Climbing Cleveland Center
Wed 03:34:43 PM 42.7044 -76.2597 273° West 150 173 26,000  Level Cleveland Center
Wed 03:35:43 PM 42.7050 -76.3333 271° West 173 199 26,000  Level Cleveland Center
Wed 03:36:43 PM 42.7183 -76.4086 284° West 191 220 26,000  Level Cleveland Center
Wed 03:37:43 PM 42.7272 -76.4872 279° West 207 238 26,000  Level Cleveland Center
Wed 03:38:43 PM 42.7342 -76.5661 277° West 217 250 26,000  Level Cleveland Center
Wed 03:39:43 PM 42.7453 -76.6472 281° West 217 250 26,000  Level Cleveland Center
Wed 03:40:43 PM 42.7567 -76.7372 280° West 217 250 26,000  Level Cleveland Center
Wed 03:41:43 PM 42.7425 -76.8117 255° West 211 243 26,000  Level Cleveland Center
Wed 03:42:43 PM 42.7281 -76.8831 255° West 206 237 26,000  Level Cleveland Center
Wed 03:43:43 PM 42.7117 -76.9575 253° West 206 237 26,000  Level Cleveland Center
Wed 03:44:43 PM 42.6975 -77.0319 256° West 206 237 26,000  Level Cleveland Center
Wed 03:45:43 PM 42.6831 -77.1061 255° West 211 243 26,000  Level Cleveland Center
Wed 03:46:43 PM 42.6706 -77.1831 258° West 206 237 26,000  Level Cleveland Center
Wed 03:47:43 PM 42.6686 -77.2594 268° West 206 237 26,000  Level Cleveland Center
Wed 03:48:43 PM 42.6669 -77.3386 268° West 206 237 26,000  Level Cleveland Center
Wed 03:49:43 PM 42.6647 -77.4150 268° West 206 237 26,000  Level Cleveland Center
Wed 03:50:43 PM 42.6625 -77.4858 268° West 206 237 26,000  Level Cleveland Center
Wed 03:51:43 PM 42.6625 -77.5619 270° West 206 237 26,000  Level Cleveland Center
Wed 03:52:43 PM 42.6561 -77.6386 264° West 206 237 26,000  Level Cleveland Center
Wed 03:53:43 PM 42.6581 -77.7175 272° West 212 244 26,000  Level Cleveland Center
Wed 03:54:43 PM 42.6558 -77.7967 268° West 212 244 26,000  Level Cleveland Center
Wed 03:55:43 PM 42.6681 -77.8722 282° West 212 244 26,000  Level Cleveland Center
Wed 03:56:43 PM 42.6803 -77.9481 282° West 217 250 26,000  Level Cleveland Center
Wed 03:57:43 PM 42.6944 -78.0267 284° West 217 250 26,000  Level Cleveland Center
Wed 03:59:00 PM 42.7256 -78.1122 296° West  Level FlightAware Approximate
Wed 04:00:43 PM 42.7242 -78.2514 279° West 212 244 26,000  Level Cleveland Center
Wed 04:01:43 PM 42.7153 -78.3253 261° West 207 238 26,000  Level Cleveland Center
Wed 04:02:44 PM 42.7064 -78.3992 261° West 207 238 26,000  Level Cleveland Center
Wed 04:03:43 PM 42.6994 -78.4700 262° West 196 226 26,000  Level Cleveland Center
Wed 04:04:43 PM 42.6922 -78.5408 262° West 196 226 26,000  Level Cleveland Center
Wed 04:05:43 PM 42.6853 -78.6117 262° West 196 226 26,000  Level Cleveland Center
Wed 04:06:00 PM 42.7916 -78.6290 279° West  Level FlightAware Approximate
Wed 04:06:43 PM 42.6781 -78.6825 262° West 196 226 26,000  Level Cleveland Center
Wed 04:07:43 PM 42.6728 -78.7533 264° West 196 226 26,000  Level Cleveland Center
Wed 04:08:44 PM 42.6656 -78.8242 262° West 196 226 26,000  Level Cleveland Center
Wed 04:09:43 PM 42.6583 -78.8978 262° West 196 226 26,000  Level Cleveland Center
Wed 04:10:43 PM 42.6511 -78.9683 262° West 196 226 26,000  Level Cleveland Center
Wed 04:11:43 PM 42.6458 -79.0392 264° West 196 226 26,000  Level Cleveland Center
Wed 04:12:43 PM 42.6406 -79.1100 264° West 196 226 26,000  Level Cleveland Center
Wed 04:13:43 PM 42.6539 -79.1886 283° West 196 226 26,000  Level Cleveland Center
Wed 04:14:43 PM 42.6675 -79.2644 284° West 202 232 26,000  Level Cleveland Center
Wed 04:15:43 PM 42.6808 -79.3433 283° West 207 238 26,000  Level Cleveland Center
Wed 04:16:43 PM 42.6942 -79.4194 283° West 212 244 26,000  Level Cleveland Center
Wed 04:17:43 PM 42.7094 -79.4953 285° West 212 244 26,000  Level Cleveland Center
Wed 04:18:43 PM 42.7247 -79.5742 285° West 212 244 26,000  Level Cleveland Center
Wed 04:19:43 PM 42.7378 -79.6475 284° West 217 250 26,000  Level Cleveland Center
Wed 04:20:43 PM 42.7550 -79.7236 287° West 217 250 26,000  Level Cleveland Center
Wed 04:21:43 PM 42.7681 -79.7997 283° West 217 250 26,000  Level Cleveland Center
Wed 04:22:43 PM 42.7831 -79.8761 285° West 212 244 26,000  Level Cleveland Center
Wed 04:23:43 PM 42.7961 -79.9522 283° West 212 244 26,000  Level Cleveland Center
Wed 04:24:43 PM 42.8111 -80.0342 284° West 224 258 26,000  Level Cleveland Center
Wed 04:25:43 PM 42.8261 -80.1106 285° West 219 252 26,000  Level Cleveland Center
Wed 04:26:44 PM 42.8431 -80.1869 287° West 219 252 26,000 -313 Level Cleveland Center
Wed 04:28:55 PM 42.8667 -80.3333 282° West 220 253 25,000 -597 Descending Toronto Center
Wed 04:29:55 PM 42.8667 -80.4333 270° West 240 276 24,100 -950 Descending Toronto Center
Wed 04:30:55 PM 42.8667 -80.5167 270° West 240 276 23,100 -1,050 Descending Toronto Center
Wed 04:31:55 PM 42.8500 -80.6333 259° West 250 288 22,000 -1,050 Descending Toronto Center
Wed 04:32:55 PM 42.8500 -80.7167 270° West 250 288 21,000 -1,000 Descending Toronto Center
Wed 04:33:55 PM 42.8333 -80.8167 257° West 240 276 20,000 -1,050 Descending Toronto Center
Wed 04:34:55 PM 42.8333 -80.9000 270° West 230 265 18,900 -1,000 Descending Toronto Center
Wed 04:35:55 PM 42.8333 -80.9667 270° West 230 265 18,000 -450 Descending Toronto Center
Wed 04:36:55 PM 42.8333 -81.0667 270° West 220 253 18,000  Level Toronto Center
Wed 04:37:55 PM 42.8500 -81.1500 285° West 220 253 18,000  Level Toronto Center
Wed 04:38:55 PM 42.8500 -81.2500 270° West 230 265 18,000 -100 Level Toronto Center
Wed 04:39:55 PM 42.8500 -81.3167 270° West 230 265 17,800 -750 Descending Toronto Center
Wed 04:40:55 PM 42.8500 -81.4333 270° West 240 276 16,500 -1,150 Descending Toronto Center
Wed 04:41:55 PM 42.8500 -81.5167 270° West 240 276 15,500 -950 Descending Toronto Center
Wed 04:42:55 PM 42.8500 -81.6167 270° West 240 276 14,600 -950 Descending Toronto Center
Wed 04:43:55 PM 42.8500 -81.6833 270° West 230 265 13,600 -1,100 Descending Toronto Center
Wed 04:44:55 PM 42.8500 -81.8000 270° West 240 276 12,400 -750 Descending Toronto Center
Wed 04:45:55 PM 42.8500 -81.8667 270° West 230 265 12,100 -150 Descending Toronto Center
Wed 04:46:55 PM 42.8333 -81.9500 255° West 230 265 12,100  Level Toronto Center
Wed 04:47:55 PM 42.8167 -82.0500 257° West 220 253 12,100 -500 Level Toronto Center
Wed 04:48:55 PM 42.8000 -82.1167 251° West 220 253 11,100 -1,150 Descending Toronto Center
Wed 04:49:55 PM 42.7833 -82.2000 255° West 230 265 9,800 -950 Descending Toronto Center
Wed 04:50:55 PM 42.7667 -82.2667 251° West 220 253 9,200 -750 Descending Toronto Center
Wed 04:51:55 PM 42.7667 -82.3500 270° West 230 265 8,300 -800 Descending Toronto Center
Wed 04:52:55 PM 42.7667 -82.4500 270° West 230 265 7,600 -750 Descending Toronto Center
Wed 04:53:55 PM 42.7667 -82.5333 270° West 220 253 6,800 -650 Descending Toronto Center
Wed 04:54:55 PM 42.7667 -82.6000 270° West 200 230 6,300 -400 Descending Toronto Center
Wed 04:55:55 PM 42.7500 -82.6833 255° West 190 219 6,000 -100 Descending Toronto Center
Wed 04:56:55 PM 42.7333 -82.7500 251° West 180 207 6,100 50 Climbing Toronto Center
Wed 04:57:55 PM 42.7333 -82.8167 270° West 190 219 6,100  Level Toronto Center
Wed 04:58:30 PM 42.7356 -82.8672 273° West 187 215 6,100 -125 Level Cleveland Center
Wed 04:59:31 PM 42.7258 -82.9347 259° West 179 206 5,900 -934 Descending Cleveland Center
Wed 05:00:32 PM 42.7181 -83.0078 262° West 185 213 4,200 -931 Descending Cleveland Center
Wed 05:01:27 PM 42.7083 -83.0697 258° West 195 224 4,100 -310 Descending Cleveland Center
Wed 05:02:28 PM 42.6964 -83.1397 257° West 188 216 3,600 -595 Descending Cleveland Center
Wed 05:03:28 PM 42.6822 -83.2128 255° West 193 222 2,900 -614 Descending Cleveland Center
Wed 05:04:35 PM 42.6683 -83.2828 255° West 181 208 2,300 -443 Descending Cleveland Center
Wed 05:05:30 PM 42.6672 -83.3308 268° West 132 152 2,000 -414 Descending Cleveland Center
Wed 05:06:31 PM 42.6639 -83.3758 264° West 99 114 1,500 -492 Descending Cleveland Center
Wed 05:08:00 PM 42.6500 -83.4167 246° West  Level FlightAware Approximate
Wed 05:15:00 PM 42.6656 -83.4205 246° West  Level Estimated
Wed 05:16:00 PM 42.6656 -83.4205 246° West  Level Estimated

Login

Don't have an account? Register now (free) for customized features, flight alerts, and more!